createdAt,value
2023-02-24T00:01:51.008Z,36.92
2023-02-24T00:04:19.094Z,38.03
2023-02-24T00:06:46.221Z,39.92
2023-02-24T00:09:16.591Z,39.70
2023-02-24T00:11:45.651Z,40.28
2023-02-24T00:14:19.206Z,40.47
2023-02-24T00:16:47.200Z,47.85
2023-02-24T00:19:18.169Z,47.97
2023-02-24T00:21:45.366Z,36.78
2023-02-24T00:24:12.752Z,35.92
2023-02-24T00:26:40.223Z,34.50
2023-02-24T00:29:09.843Z,41.85
2023-02-24T00:31:39.763Z,41.58
2023-02-24T00:34:07.272Z,41.83
2023-02-24T00:36:34.865Z,29.33
2023-02-24T00:39:11.791Z,27.60
2023-02-24T00:41:43.239Z,27.05
2023-02-24T00:44:13.089Z,28.87
2023-02-24T00:46:42.804Z,26.08
2023-02-24T00:49:17.304Z,30.90
2023-02-24T00:51:49.137Z,25.25
2023-02-24T00:54:17.025Z,25.23
2023-02-24T00:56:45.465Z,27.75
2023-02-24T00:59:13.731Z,22.52
2023-02-24T01:01:41.996Z,25.20
2023-02-24T01:04:12.166Z,21.90
2023-02-24T01:06:45.159Z,20.88
2023-02-24T01:09:18.004Z,24.40
2023-02-24T01:12:04.939Z,20.85
2023-02-24T01:14:34.259Z,21.47
2023-02-24T01:17:01.778Z,24.02
2023-02-24T01:19:31.731Z,20.50
2023-02-24T01:22:01.250Z,20.83
2023-02-24T01:24:39.402Z,22.30
2023-02-24T01:27:07.145Z,21.87
2023-02-24T01:29:39.471Z,24.60
2023-02-24T01:32:13.087Z,27.55
2023-02-24T01:34:42.623Z,24.63
2023-02-24T01:37:10.336Z,25.00
2023-02-24T01:39:37.525Z,25.08
2023-02-24T01:42:06.603Z,22.55
2023-02-24T01:44:33.462Z,22.45
2023-02-24T01:47:04.062Z,23.10
2023-02-24T01:49:39.538Z,22.45
2023-02-24T01:52:09.360Z,24.25
2023-02-24T01:54:43.159Z,24.80
2023-02-24T01:57:20.014Z,23.87
2023-02-24T01:59:48.819Z,20.70
2023-02-24T02:02:15.957Z,22.02
2023-02-24T02:04:55.031Z,25.15
2023-02-24T02:07:23.914Z,21.98
2023-02-24T02:09:54.782Z,22.75
2023-02-24T02:12:23.291Z,25.23
2023-02-24T02:14:54.987Z,25.65
2023-02-24T02:17:41.091Z,20.95
2023-02-24T02:20:36.949Z,24.63
2023-02-24T02:23:22.260Z,23.58
2023-02-24T02:26:11.021Z,23.20
2023-02-24T02:28:54.163Z,23.08
2023-02-24T02:31:42.479Z,27.92
2023-02-24T02:34:15.670Z,25.00
2023-02-24T02:36:59.986Z,25.88
2023-02-24T02:39:35.597Z,24.87
2023-02-24T02:42:14.471Z,23.77
2023-02-24T02:44:47.735Z,24.55
2023-02-24T02:47:24.134Z,24.55
2023-02-24T02:50:08.313Z,26.70
2023-02-24T02:52:55.848Z,22.00
2023-02-24T02:55:50.062Z,23.10
2023-02-24T02:58:20.875Z,22.15
2023-02-24T03:01:02.984Z,24.25
2023-02-24T03:03:33.148Z,24.65
2023-02-24T03:06:05.215Z,21.98
2023-02-24T03:08:37.333Z,25.27
2023-02-24T03:11:08.265Z,22.45
2023-02-24T03:13:39.597Z,27.48
2023-02-24T03:16:07.171Z,25.85
2023-02-24T03:18:41.078Z,24.60
2023-02-24T03:21:16.002Z,25.73
2023-02-24T03:23:53.048Z,24.00
2023-02-24T03:26:29.112Z,23.45
2023-02-24T03:29:03.493Z,26.73
2023-02-24T03:31:40.254Z,26.80
2023-02-24T03:34:29.450Z,24.02
2023-02-24T03:36:57.280Z,25.65
2023-02-24T03:39:24.813Z,23.85
2023-02-24T03:41:57.946Z,22.08
2023-02-24T03:44:25.134Z,22.50
2023-02-24T03:46:52.817Z,22.30
2023-02-24T03:49:20.623Z,23.33
2023-02-24T03:52:21.676Z,23.55
2023-02-24T03:54:59.331Z,26.55
2023-02-24T03:57:54.932Z,25.10
2023-02-24T04:00:34.374Z,28.98
2023-02-24T04:03:15.467Z,24.77
2023-02-24T04:05:53.261Z,23.42
2023-02-24T04:08:21.717Z,24.33
2023-02-24T04:10:54.894Z,25.23
2023-02-24T04:13:35.536Z,26.73
2023-02-24T04:16:17.081Z,28.17
2023-02-24T04:18:49.345Z,24.73
2023-02-24T04:21:18.157Z,23.52
2023-02-24T04:23:45.491Z,21.75
2023-02-24T04:26:14.314Z,24.95
2023-02-24T04:28:41.710Z,22.37
2023-02-24T04:31:17.726Z,26.02
2023-02-24T04:33:50.566Z,26.52
2023-02-24T04:36:18.860Z,29.48
2023-02-24T04:38:48.429Z,31.92
2023-02-24T04:41:21.847Z,27.90
2023-02-24T04:43:52.236Z,23.52
2023-02-24T04:46:23.572Z,25.88
2023-02-24T04:48:51.162Z,26.48
2023-02-24T04:51:21.226Z,27.65
2023-02-24T04:53:50.236Z,30.00
2023-02-24T04:56:18.824Z,36.15
2023-02-24T04:58:46.528Z,31.60
2023-02-24T05:01:13.535Z,29.50
2023-02-24T05:03:43.240Z,32.13
2023-02-24T05:06:17.451Z,30.12
2023-02-24T05:08:45.154Z,29.55
2023-02-24T05:11:16.290Z,31.12
2023-02-24T05:13:46.153Z,25.60
2023-02-24T05:16:15.585Z,30.05
2023-02-24T05:18:42.821Z,31.73
2023-02-24T05:21:35.673Z,28.23
2023-02-24T05:24:11.787Z,27.30
2023-02-24T05:26:42.025Z,28.77
2023-02-24T05:29:09.533Z,27.23
2023-02-24T05:31:37.598Z,31.27
2023-02-24T05:34:06.937Z,30.52
2023-02-24T05:36:40.487Z,29.15
2023-02-24T05:39:08.177Z,30.12
2023-02-24T05:41:42.090Z,30.42
2023-02-24T05:44:12.861Z,30.20
2023-02-24T05:46:41.713Z,31.02
2023-02-24T05:49:23.817Z,30.65
2023-02-24T05:51:55.747Z,30.20
2023-02-24T05:54:29.918Z,31.27
2023-02-24T05:57:02.417Z,32.47
2023-02-24T05:59:35.456Z,33.92
2023-02-24T06:02:09.490Z,31.58
2023-02-24T06:04:45.897Z,34.67
2023-02-24T06:07:22.238Z,35.40
2023-02-24T06:09:50.843Z,34.80
2023-02-24T06:12:18.538Z,33.67
2023-02-24T06:14:45.416Z,34.78
2023-02-24T06:17:12.710Z,33.60
2023-02-24T06:19:41.391Z,33.95
2023-02-24T06:22:12.011Z,38.97
2023-02-24T06:24:42.981Z,32.83
2023-02-24T06:27:10.598Z,35.75
2023-02-24T06:29:38.156Z,34.38
2023-02-24T06:32:11.203Z,32.95
2023-02-24T06:34:39.008Z,34.45
2023-02-24T06:37:07.402Z,33.25
2023-02-24T06:39:37.205Z,32.83
2023-02-24T06:42:05.284Z,34.60
2023-02-24T06:44:32.936Z,36.70
2023-02-24T06:46:59.959Z,34.83
2023-02-24T06:49:27.448Z,33.90
2023-02-24T06:51:55.049Z,34.00
2023-02-24T06:54:22.623Z,34.38
2023-02-24T06:56:50.423Z,35.83
2023-02-24T06:59:21.955Z,40.30
2023-02-24T07:01:49.802Z,32.65
2023-02-24T07:04:18.106Z,32.65
2023-02-24T07:06:50.464Z,41.58
2023-02-24T07:09:18.961Z,37.28
2023-02-24T07:11:48.528Z,35.28
2023-02-24T07:14:15.596Z,39.55
2023-02-24T07:16:45.667Z,38.63
2023-02-24T07:19:15.666Z,37.03
2023-02-24T07:21:46.845Z,35.78
2023-02-24T07:24:20.410Z,36.80
2023-02-24T07:26:51.946Z,38.55
2023-02-24T07:29:18.845Z,40.67
2023-02-24T07:31:45.897Z,38.75
2023-02-24T07:34:15.242Z,37.38
2023-02-24T07:36:49.430Z,39.22
2023-02-24T07:39:17.818Z,37.58
2023-02-24T07:41:45.815Z,38.75
2023-02-24T07:44:16.614Z,37.63
2023-02-24T07:46:43.869Z,38.35
2023-02-24T07:49:13.715Z,38.55
2023-02-24T07:51:40.844Z,35.97
2023-02-24T07:54:08.973Z,38.40
2023-02-24T07:56:46.159Z,37.83
2023-02-24T07:59:16.210Z,39.83
2023-02-24T08:01:49.937Z,38.85
2023-02-24T08:04:19.100Z,39.45
2023-02-24T08:06:48.120Z,37.42
2023-02-24T08:09:43.189Z,39.15
2023-02-24T08:12:11.308Z,37.22
2023-02-24T08:14:44.754Z,41.75
2023-02-24T08:17:12.832Z,35.80
2023-02-24T08:19:39.847Z,41.05
2023-02-24T08:22:21.073Z,41.88
2023-02-24T08:24:54.749Z,39.15
2023-02-24T08:27:24.335Z,40.15
2023-02-24T08:30:01.728Z,36.47
2023-02-24T08:35:15.596Z,39.72
2023-02-24T08:37:47.970Z,39.28
2023-02-24T08:40:32.595Z,40.53
2023-02-24T08:43:25.642Z,40.30
2023-02-24T08:45:59.600Z,40.05
2023-02-24T08:48:37.564Z,36.22
2023-02-24T08:51:09.381Z,39.35
2023-02-24T08:53:40.628Z,40.03
2023-02-24T08:56:11.852Z,39.28
2023-02-24T08:58:41.277Z,43.03
2023-02-24T09:01:24.598Z,45.53
2023-02-24T09:03:57.052Z,40.65
2023-02-24T09:06:46.672Z,38.88
2023-02-24T09:09:21.009Z,41.83
2023-02-24T09:11:58.802Z,39.55
2023-02-24T09:14:38.983Z,45.80
2023-02-24T09:17:11.521Z,41.70
2023-02-24T09:20:01.600Z,40.03
2023-02-24T09:22:57.922Z,41.92
2023-02-24T09:25:40.796Z,41.58
2023-02-24T09:28:17.906Z,45.67
2023-02-24T09:30:53.731Z,41.42
2023-02-24T09:33:39.447Z,40.12
2023-02-24T09:36:35.671Z,39.78
2023-02-24T09:39:02.632Z,44.20
2023-02-24T09:41:54.859Z,39.53
2023-02-24T09:44:33.552Z,39.72
2023-02-24T09:47:09.272Z,38.08
2023-02-24T09:49:46.775Z,39.40
2023-02-24T09:52:18.450Z,40.10
2023-02-24T09:55:16.234Z,34.25
2023-02-24T09:58:06.943Z,38.00
2023-02-24T10:00:36.146Z,37.38
2023-02-24T10:03:30.237Z,35.13
2023-02-24T10:06:12.432Z,32.85
2023-02-24T10:08:46.813Z,35.63
2023-02-24T10:11:14.875Z,36.95
2023-02-24T10:13:50.448Z,35.78
2023-02-24T10:16:25.093Z,37.35
2023-02-24T10:19:16.825Z,31.33
2023-02-24T10:22:06.607Z,34.47
2023-02-24T10:24:47.592Z,33.17
2023-02-24T10:27:24.225Z,34.20
2023-02-24T10:30:06.014Z,32.88
2023-02-24T10:33:03.005Z,34.17
2023-02-24T10:35:39.439Z,29.70
2023-02-24T10:38:06.358Z,31.55
2023-02-24T10:40:47.108Z,32.13
2023-02-24T10:43:19.230Z,35.78
2023-02-24T10:45:47.414Z,30.85
2023-02-24T10:48:41.977Z,32.30
2023-02-24T10:51:20.167Z,29.77
2023-02-24T10:54:09.366Z,31.50
2023-02-24T10:56:44.619Z,27.17
2023-02-24T10:59:41.005Z,28.45
2023-02-24T11:02:29.895Z,29.12
2023-02-24T11:04:59.734Z,28.50
2023-02-24T11:07:44.066Z,26.98
2023-02-24T11:10:26.467Z,29.27
2023-02-24T11:13:13.694Z,28.77
2023-02-24T11:16:12.860Z,27.02
2023-02-24T11:18:40.368Z,27.45
2023-02-24T11:21:09.771Z,28.20
2023-02-24T11:23:44.242Z,28.70
2023-02-24T11:26:21.610Z,28.70
2023-02-24T11:29:25.995Z,26.95
2023-02-24T11:32:02.665Z,30.05
2023-02-24T11:34:49.698Z,29.75
2023-02-24T11:37:34.789Z,27.93
2023-02-24T11:40:15.899Z,31.15
2023-02-24T11:42:46.315Z,29.45
2023-02-24T11:45:43.647Z,30.33
2023-02-24T11:48:16.332Z,31.73
2023-02-24T11:50:54.436Z,32.08
2023-02-24T11:53:32.385Z,37.30
2023-02-24T11:56:07.331Z,36.90
2023-02-24T11:59:09.319Z,33.38
2023-02-24T12:01:42.111Z,33.83
2023-02-24T12:04:23.370Z,33.50
2023-02-24T12:06:59.499Z,36.65
2023-02-24T12:09:37.271Z,37.72
2023-02-24T12:12:14.006Z,35.03
2023-02-24T12:14:47.860Z,39.85
2023-02-24T12:17:24.372Z,34.40
2023-02-24T12:19:59.836Z,36.05
2023-02-24T12:22:31.396Z,32.75
2023-02-24T12:24:58.530Z,29.83
2023-02-24T12:27:49.509Z,31.85
2023-02-24T12:30:49.155Z,29.75
2023-02-24T12:33:35.058Z,33.88
2023-02-24T12:36:30.908Z,33.95
2023-02-24T12:39:28.591Z,31.10
2023-02-24T12:42:18.418Z,31.60
2023-02-24T12:44:49.950Z,27.98
2023-02-24T12:47:39.681Z,30.48
2023-02-24T12:50:24.708Z,30.48
2023-02-24T12:53:01.657Z,31.83
2023-02-24T12:55:34.981Z,29.05
2023-02-24T12:58:10.907Z,29.98
2023-02-24T13:01:06.414Z,31.70
2023-02-24T13:03:50.037Z,32.80
2023-02-24T13:06:33.474Z,28.90
2023-02-24T13:09:23.536Z,30.37
2023-02-24T13:11:56.602Z,29.00
2023-02-24T13:14:28.595Z,31.90
2023-02-24T13:17:20.119Z,30.85
2023-02-24T13:19:48.393Z,31.42
2023-02-24T13:22:16.966Z,32.70
2023-02-24T13:24:55.307Z,32.20
2023-02-24T13:27:25.155Z,33.25
2023-02-24T13:29:57.788Z,29.25
2023-02-24T13:32:26.096Z,35.42
2023-02-24T13:34:53.131Z,30.08
2023-02-24T13:37:39.777Z,35.45
2023-02-24T13:40:16.697Z,33.78
2023-02-24T13:42:56.867Z,30.62
2023-02-24T13:45:27.729Z,30.00
2023-02-24T13:48:03.543Z,35.25
2023-02-24T13:50:52.595Z,30.77
2023-02-24T13:54:03.947Z,33.70
2023-02-24T13:56:59.240Z,32.80
2023-02-24T13:59:52.104Z,29.15
2023-02-24T14:02:22.048Z,30.52
2023-02-24T14:04:51.724Z,31.62
2023-02-24T14:07:23.558Z,32.08
2023-02-24T14:10:02.639Z,31.25
2023-02-24T14:12:34.571Z,31.27
2023-02-24T14:15:02.829Z,28.77
2023-02-24T14:17:39.826Z,29.83
2023-02-24T14:20:10.724Z,27.83
2023-02-24T14:22:49.411Z,25.92
2023-02-24T14:25:18.218Z,30.92
2023-02-24T14:27:47.042Z,29.27
2023-02-24T14:30:39.546Z,27.98
2023-02-24T14:33:08.139Z,29.83
2023-02-24T14:35:45.848Z,26.75
2023-02-24T14:38:34.487Z,25.30
2023-02-24T14:41:03.067Z,24.92
2023-02-24T14:43:30.039Z,27.10
2023-02-24T14:46:00.157Z,25.92
2023-02-24T14:48:30.338Z,27.50
2023-02-24T14:51:10.345Z,25.35
2023-02-24T14:53:43.582Z,23.10
2023-02-24T14:56:13.103Z,28.95
2023-02-24T14:58:53.937Z,27.05
2023-02-24T15:01:32.278Z,27.77
2023-02-24T15:04:01.574Z,27.45
2023-02-24T15:06:40.837Z,26.05
2023-02-24T15:09:21.794Z,30.05
2023-02-24T15:11:49.434Z,26.45
2023-02-24T15:14:29.527Z,24.77
2023-02-24T15:17:00.280Z,24.60
2023-02-24T15:19:45.875Z,25.75
2023-02-24T15:22:21.920Z,26.42
2023-02-24T15:24:49.462Z,25.30
2023-02-24T15:27:16.310Z,23.05
2023-02-24T15:29:44.469Z,23.58
2023-02-24T15:32:17.455Z,21.85
2023-02-24T15:34:46.146Z,27.45
2023-02-24T15:37:15.972Z,25.37
2023-02-24T15:39:44.031Z,24.27
2023-02-24T15:42:17.252Z,25.80
2023-02-24T15:44:55.976Z,20.27
2023-02-24T15:47:28.972Z,21.75
2023-02-24T15:49:55.932Z,20.73
2023-02-24T15:52:26.080Z,22.33
2023-02-24T15:54:53.894Z,20.98
2023-02-24T15:57:21.311Z,20.30
2023-02-24T15:59:48.606Z,20.77
2023-02-24T16:02:20.940Z,20.27
2023-02-24T16:04:48.646Z,21.17
2023-02-24T16:07:24.883Z,19.60
2023-02-24T16:09:53.572Z,22.23
2023-02-24T16:12:32.267Z,20.55
2023-02-24T16:15:05.680Z,19.77
2023-02-24T16:17:40.467Z,23.58
2023-02-24T16:20:17.429Z,19.62
2023-02-24T16:22:44.463Z,21.85
2023-02-24T16:25:14.595Z,21.95
2023-02-24T16:27:41.538Z,22.70
2023-02-24T16:30:16.153Z,20.67
2023-02-24T16:32:43.198Z,19.08
2023-02-24T16:35:11.471Z,24.67
2023-02-24T16:37:38.513Z,22.70
2023-02-24T16:40:20.373Z,24.17
2023-02-24T16:42:48.645Z,24.10
2023-02-24T16:45:15.623Z,21.77
2023-02-24T16:47:43.326Z,27.95
2023-02-24T16:50:19.046Z,22.30
2023-02-24T16:52:45.885Z,21.98
2023-02-24T16:55:14.343Z,21.12
2023-02-24T16:57:41.869Z,20.70
2023-02-24T17:00:11.627Z,21.45
2023-02-24T17:02:40.418Z,23.45
2023-02-24T17:05:07.980Z,26.12
2023-02-24T17:07:39.408Z,21.95
2023-02-24T17:10:06.963Z,22.58
2023-02-24T17:12:33.810Z,29.85
2023-02-24T17:15:00.822Z,27.67
2023-02-24T17:17:27.769Z,21.83
2023-02-24T17:19:54.636Z,24.15
2023-02-24T17:22:22.434Z,22.80
2023-02-24T17:24:49.676Z,23.98
2023-02-24T17:27:16.516Z,21.30
2023-02-24T17:32:10.205Z,25.30
2023-02-24T17:34:37.256Z,22.23
2023-02-24T17:37:04.219Z,20.37
2023-02-24T17:39:31.106Z,21.62
2023-02-24T17:41:58.146Z,20.48
2023-02-24T17:44:25.185Z,24.15
2023-02-24T17:46:52.417Z,25.00
2023-02-24T17:49:19.395Z,26.17
2023-02-24T17:51:46.234Z,23.77
2023-02-24T17:56:39.922Z,26.17
2023-02-24T17:59:06.840Z,26.30
2023-02-24T18:01:33.738Z,26.92
2023-02-24T18:04:00.605Z,27.80
2023-02-24T18:06:27.530Z,29.92
2023-02-24T18:08:55.234Z,25.92
2023-02-24T18:11:22.109Z,23.98
2023-02-24T18:13:52.822Z,28.27
2023-02-24T18:16:20.144Z,26.77
2023-02-24T18:18:47.339Z,24.87
2023-02-24T18:21:14.219Z,21.37
2023-02-24T18:23:41.141Z,24.67
2023-02-24T18:26:09.041Z,27.17
2023-02-24T18:28:37.207Z,24.02
2023-02-24T18:31:16.403Z,24.77
2023-02-24T18:33:43.830Z,21.05
2023-02-24T18:36:11.254Z,27.25
2023-02-24T18:38:38.180Z,27.62
2023-02-24T18:41:07.497Z,28.30
2023-02-24T18:43:35.788Z,23.92
2023-02-24T18:46:05.965Z,24.33
2023-02-24T18:48:33.991Z,26.67
2023-02-24T18:51:01.629Z,24.55
2023-02-24T18:53:31.234Z,26.67
2023-02-24T18:56:02.758Z,22.45
2023-02-24T18:58:30.642Z,27.30
2023-02-24T19:00:57.526Z,22.60
2023-02-24T19:03:24.701Z,26.77
2023-02-24T19:05:52.201Z,26.67
2023-02-24T19:08:19.282Z,29.20
2023-02-24T19:10:46.137Z,28.40
2023-02-24T19:13:13.034Z,25.08
2023-02-24T19:15:40.398Z,28.73
2023-02-24T19:18:07.570Z,28.92
2023-02-24T19:20:34.444Z,27.35
2023-02-24T19:23:01.557Z,29.20
2023-02-24T19:25:28.470Z,30.52
2023-02-24T19:27:55.343Z,24.02
2023-02-24T19:30:22.293Z,25.50
2023-02-24T19:32:49.781Z,29.00
2023-02-24T19:35:16.973Z,30.15
2023-02-24T19:37:43.866Z,26.83
2023-02-24T19:40:11.461Z,31.27
2023-02-24T19:42:38.326Z,24.52
2023-02-24T19:45:05.613Z,27.45
2023-02-24T19:47:33.182Z,26.55
2023-02-24T19:50:00.097Z,33.85
2023-02-24T19:52:27.045Z,33.38
2023-02-24T19:54:54.461Z,26.92
2023-02-24T19:57:21.349Z,29.17
2023-02-24T19:59:51.972Z,31.45
2023-02-24T20:02:18.985Z,30.35
2023-02-24T20:04:45.965Z,29.67
2023-02-24T20:07:12.944Z,24.10
2023-02-24T20:09:42.078Z,29.87
2023-02-24T20:12:09.705Z,28.48
2023-02-24T20:14:36.630Z,33.97
2023-02-24T20:17:03.604Z,33.08
2023-02-24T20:19:33.029Z,27.58
2023-02-24T20:22:01.004Z,29.40
2023-02-24T20:24:30.243Z,26.65
2023-02-24T20:26:57.105Z,30.65
2023-02-24T20:29:24.169Z,30.37
2023-02-24T20:31:51.186Z,30.33
2023-02-24T20:34:18.373Z,27.77
2023-02-24T20:36:45.495Z,27.73
2023-02-24T20:39:12.639Z,26.55
2023-02-24T20:41:40.121Z,25.62
2023-02-24T20:44:08.178Z,25.23
2023-02-24T20:46:35.296Z,28.77
2023-02-24T20:49:07.849Z,29.75
2023-02-24T20:51:37.308Z,31.10
2023-02-24T20:54:11.493Z,26.60
2023-02-24T20:56:40.168Z,34.67
2023-02-24T20:59:12.267Z,31.12
2023-02-24T21:01:39.739Z,23.33
2023-02-24T21:04:08.075Z,30.17
2023-02-24T21:06:36.220Z,28.38
2023-02-24T21:09:04.046Z,31.48
2023-02-24T21:11:31.020Z,28.33
2023-02-24T21:13:58.629Z,23.77
2023-02-24T21:16:27.025Z,29.00
2023-02-24T21:18:54.277Z,31.40
2023-02-24T21:21:21.405Z,31.58
2023-02-24T21:23:48.714Z,24.60
2023-02-24T21:26:16.203Z,26.55
2023-02-24T21:28:43.273Z,26.60
2023-02-24T21:31:12.108Z,30.92
2023-02-24T21:33:39.385Z,27.87
2023-02-24T21:36:09.315Z,30.20
2023-02-24T21:38:37.365Z,28.92
2023-02-24T21:41:07.301Z,25.70
2023-02-24T21:43:34.629Z,30.80
2023-02-24T21:46:02.895Z,29.70
2023-02-24T21:48:29.839Z,28.73
2023-02-24T21:51:00.113Z,33.78
2023-02-24T21:53:30.207Z,28.48
2023-02-24T21:56:04.592Z,28.60
2023-02-24T21:58:32.867Z,27.35
2023-02-24T22:00:59.807Z,32.28
2023-02-24T22:03:26.850Z,33.53
2023-02-24T22:05:54.594Z,30.30
2023-02-24T22:08:21.437Z,26.40
2023-02-24T22:13:23.378Z,30.85
2023-02-24T22:18:16.904Z,28.42
2023-02-24T22:20:43.845Z,23.98
2023-02-24T22:23:10.716Z,28.00
2023-02-24T22:25:37.611Z,26.08
2023-02-24T22:28:04.709Z,27.30
2023-02-24T22:30:32.149Z,29.30
2023-02-24T22:32:59.031Z,29.83
2023-02-24T22:35:25.884Z,24.90
2023-02-24T22:37:53.804Z,25.30
2023-02-24T22:40:20.924Z,22.13
2023-02-24T22:42:47.928Z,27.77
2023-02-24T22:45:14.834Z,26.75
2023-02-24T22:47:41.735Z,27.98
2023-02-24T22:50:09.753Z,25.37
2023-02-24T22:52:36.613Z,32.95
2023-02-24T22:57:32.880Z,24.75
2023-02-24T22:59:59.863Z,27.83
2023-02-24T23:02:27.563Z,25.70
2023-02-24T23:04:54.440Z,24.42
2023-02-24T23:07:21.362Z,31.80
2023-02-24T23:09:53.185Z,25.50
2023-02-24T23:12:22.385Z,28.73
2023-02-24T23:14:49.418Z,27.98
2023-02-24T23:17:16.314Z,26.25
2023-02-24T23:19:43.179Z,26.25
2023-02-24T23:22:10.036Z,29.40
2023-02-24T23:27:03.967Z,26.52
2023-02-24T23:29:30.996Z,27.20
2023-02-24T23:31:58.252Z,26.12
2023-02-24T23:34:26.043Z,24.48
2023-02-24T23:36:52.985Z,24.77
2023-02-24T23:39:23.904Z,26.40
2023-02-24T23:41:56.732Z,26.52
2023-02-24T23:44:23.982Z,25.48
2023-02-24T23:46:50.895Z,23.08
2023-02-24T23:49:17.768Z,25.75
2023-02-24T23:51:48.963Z,21.48
2023-02-24T23:54:17.558Z,23.52
2023-02-24T23:56:44.518Z,25.48
2023-02-24T23:59:12.023Z,20.85
